sensor_id;sensor_type;location;lat;lon;timestamp;P1;durP1;ratioP1;P2;durP2;ratioP2
6566;SDS011;3317;43.994;22.878;2023-06-19T00:01:12;6.70;;;4.80;;
6566;SDS011;3317;43.994;22.878;2023-06-19T00:03:39;5.40;;;4.60;;
6566;SDS011;3317;43.994;22.878;2023-06-19T00:06:07;6.03;;;4.33;;
6566;SDS011;3317;43.994;22.878;2023-06-19T00:08:34;6.97;;;4.80;;
6566;SDS011;3317;43.994;22.878;2023-06-19T00:11:02;5.20;;;4.60;;
6566;SDS011;3317;43.994;22.878;2023-06-19T00:13:29;6.40;;;4.40;;
6566;SDS011;3317;43.994;22.878;2023-06-19T00:15:56;4.73;;;4.23;;
6566;SDS011;3317;43.994;22.878;2023-06-19T00:18:25;6.43;;;4.53;;
6566;SDS011;3317;43.994;22.878;2023-06-19T00:20:52;8.00;;;4.40;;
6566;SDS011;3317;43.994;22.878;2023-06-19T00:23:22;5.20;;;4.60;;
6566;SDS011;3317;43.994;22.878;2023-06-19T00:25:49;6.53;;;4.30;;
6566;SDS011;3317;43.994;22.878;2023-06-19T00:28:16;7.23;;;4.63;;
6566;SDS011;3317;43.994;22.878;2023-06-19T00:30:45;5.87;;;4.67;;
6566;SDS011;3317;43.994;22.878;2023-06-19T00:33:12;6.00;;;4.67;;
6566;SDS011;3317;43.994;22.878;2023-06-19T00:35:39;5.07;;;3.93;;
6566;SDS011;3317;43.994;22.878;2023-06-19T00:38:07;7.73;;;4.93;;
6566;SDS011;3317;43.994;22.878;2023-06-19T00:40:35;6.33;;;4.57;;
6566;SDS011;3317;43.994;22.878;2023-06-19T00:43:02;5.00;;;4.50;;
6566;SDS011;3317;43.994;22.878;2023-06-19T00:45:29;8.20;;;4.60;;
6566;SDS011;3317;43.994;22.878;2023-06-19T00:47:57;7.50;;;4.20;;
6566;SDS011;3317;43.994;22.878;2023-06-19T00:50:25;5.67;;;4.80;;
6566;SDS011;3317;43.994;22.878;2023-06-19T00:52:55;6.23;;;4.77;;
6566;SDS011;3317;43.994;22.878;2023-06-19T00:55:22;5.30;;;4.70;;
6566;SDS011;3317;43.994;22.878;2023-06-19T00:57:53;7.63;;;4.80;;
6566;SDS011;3317;43.994;22.878;2023-06-19T01:00:20;4.20;;;3.80;;
6566;SDS011;3317;43.994;22.878;2023-06-19T01:02:47;7.37;;;4.57;;
6566;SDS011;3317;43.994;22.878;2023-06-19T01:05:14;5.27;;;4.20;;
6566;SDS011;3317;43.994;22.878;2023-06-19T01:07:44;9.97;;;5.00;;
6566;SDS011;3317;43.994;22.878;2023-06-19T01:10:15;5.93;;;4.70;;
6566;SDS011;3317;43.994;22.878;2023-06-19T01:12:47;5.53;;;4.07;;
6566;SDS011;3317;43.994;22.878;2023-06-19T01:15:20;7.73;;;4.30;;
6566;SDS011;3317;43.994;22.878;2023-06-19T01:17:49;5.83;;;4.40;;
6566;SDS011;3317;43.994;22.878;2023-06-19T01:20:16;7.57;;;5.30;;
6566;SDS011;3317;43.994;22.878;2023-06-19T01:22:45;5.97;;;5.00;;
6566;SDS011;3317;43.994;22.878;2023-06-19T01:25:12;7.37;;;4.60;;
6566;SDS011;3317;43.994;22.878;2023-06-19T01:27:40;4.40;;;3.80;;
6566;SDS011;3317;43.994;22.878;2023-06-19T01:30:08;8.00;;;4.53;;
6566;SDS011;3317;43.994;22.878;2023-06-19T01:32:40;5.27;;;4.43;;
6566;SDS011;3317;43.994;22.878;2023-06-19T01:35:15;6.77;;;5.13;;
6566;SDS011;3317;43.994;22.878;2023-06-19T01:37:43;6.10;;;4.70;;
6566;SDS011;3317;43.994;22.878;2023-06-19T01:40:14;5.63;;;4.77;;
6566;SDS011;3317;43.994;22.878;2023-06-19T01:42:42;6.83;;;4.33;;
6566;SDS011;3317;43.994;22.878;2023-06-19T01:45:09;4.80;;;4.20;;
6566;SDS011;3317;43.994;22.878;2023-06-19T01:47:36;6.90;;;4.90;;
6566;SDS011;3317;43.994;22.878;2023-06-19T01:50:04;5.30;;;4.77;;
6566;SDS011;3317;43.994;22.878;2023-06-19T01:52:32;5.90;;;4.80;;
6566;SDS011;3317;43.994;22.878;2023-06-19T01:55:00;5.70;;;4.53;;
6566;SDS011;3317;43.994;22.878;2023-06-19T01:57:27;8.03;;;5.70;;
6566;SDS011;3317;43.994;22.878;2023-06-19T01:59:54;5.60;;;4.50;;
6566;SDS011;3317;43.994;22.878;2023-06-19T02:02:21;4.40;;;3.90;;
6566;SDS011;3317;43.994;22.878;2023-06-19T02:04:48;4.90;;;4.40;;
6566;SDS011;3317;43.994;22.878;2023-06-19T02:07:15;6.57;;;4.60;;
6566;SDS011;3317;43.994;22.878;2023-06-19T02:09:42;7.40;;;4.90;;
6566;SDS011;3317;43.994;22.878;2023-06-19T02:12:10;5.80;;;4.70;;
6566;SDS011;3317;43.994;22.878;2023-06-19T02:14:37;6.40;;;4.40;;
6566;SDS011;3317;43.994;22.878;2023-06-19T02:17:04;6.23;;;4.43;;
6566;SDS011;3317;43.994;22.878;2023-06-19T02:19:31;7.20;;;4.53;;
6566;SDS011;3317;43.994;22.878;2023-06-19T02:21:58;5.47;;;4.17;;
6566;SDS011;3317;43.994;22.878;2023-06-19T02:24:25;5.40;;;4.40;;
6566;SDS011;3317;43.994;22.878;2023-06-19T02:26:52;6.40;;;4.07;;
6566;SDS011;3317;43.994;22.878;2023-06-19T02:29:21;5.17;;;4.67;;
6566;SDS011;3317;43.994;22.878;2023-06-19T02:31:47;7.43;;;4.53;;
6566;SDS011;3317;43.994;22.878;2023-06-19T02:34:14;6.43;;;4.33;;
6566;SDS011;3317;43.994;22.878;2023-06-19T02:36:42;5.30;;;4.30;;
6566;SDS011;3317;43.994;22.878;2023-06-19T02:39:12;8.70;;;4.93;;
6566;SDS011;3317;43.994;22.878;2023-06-19T02:41:39;6.87;;;4.17;;
6566;SDS011;3317;43.994;22.878;2023-06-19T02:44:08;5.50;;;4.50;;
6566;SDS011;3317;43.994;22.878;2023-06-19T02:46:36;5.37;;;4.77;;
6566;SDS011;3317;43.994;22.878;2023-06-19T02:49:03;6.77;;;4.67;;
6566;SDS011;3317;43.994;22.878;2023-06-19T02:51:30;5.17;;;4.67;;
6566;SDS011;3317;43.994;22.878;2023-06-19T02:53:57;10.73;;;4.60;;
6566;SDS011;3317;43.994;22.878;2023-06-19T02:56:26;7.13;;;4.83;;
6566;SDS011;3317;43.994;22.878;2023-06-19T02:58:53;6.83;;;4.50;;
6566;SDS011;3317;43.994;22.878;2023-06-19T03:01:20;5.03;;;4.50;;
6566;SDS011;3317;43.994;22.878;2023-06-19T03:03:49;4.47;;;3.97;;
6566;SDS011;3317;43.994;22.878;2023-06-19T03:06:17;5.63;;;4.87;;
6566;SDS011;3317;43.994;22.878;2023-06-19T03:08:45;6.73;;;4.90;;
6566;SDS011;3317;43.994;22.878;2023-06-19T03:11:13;5.90;;;4.77;;
6566;SDS011;3317;43.994;22.878;2023-06-19T03:13:44;5.80;;;5.10;;
6566;SDS011;3317;43.994;22.878;2023-06-19T03:16:12;7.20;;;4.50;;
6566;SDS011;3317;43.994;22.878;2023-06-19T03:18:40;11.60;;;4.93;;
6566;SDS011;3317;43.994;22.878;2023-06-19T03:21:08;9.67;;;4.63;;
6566;SDS011;3317;43.994;22.878;2023-06-19T03:23:35;7.97;;;5.00;;
6566;SDS011;3317;43.994;22.878;2023-06-19T03:26:02;5.70;;;4.70;;
6566;SDS011;3317;43.994;22.878;2023-06-19T03:28:29;7.10;;;4.93;;
6566;SDS011;3317;43.994;22.878;2023-06-19T03:30:56;8.17;;;4.83;;
6566;SDS011;3317;43.994;22.878;2023-06-19T03:33:23;6.50;;;5.30;;
6566;SDS011;3317;43.994;22.878;2023-06-19T03:35:50;7.47;;;5.13;;
6566;SDS011;3317;43.994;22.878;2023-06-19T03:38:19;6.93;;;4.60;;
6566;SDS011;3317;43.994;22.878;2023-06-19T03:40:45;5.47;;;4.47;;
6566;SDS011;3317;43.994;22.878;2023-06-19T03:43:12;6.63;;;5.03;;
6566;SDS011;3317;43.994;22.878;2023-06-19T03:45:41;7.93;;;4.80;;
6566;SDS011;3317;43.994;22.878;2023-06-19T03:48:08;6.57;;;5.00;;
6566;SDS011;3317;43.994;22.878;2023-06-19T03:50:35;5.90;;;4.60;;
6566;SDS011;3317;43.994;22.878;2023-06-19T03:53:02;5.93;;;4.53;;
6566;SDS011;3317;43.994;22.878;2023-06-19T03:55:31;6.90;;;5.07;;
6566;SDS011;3317;43.994;22.878;2023-06-19T03:57:58;6.30;;;4.90;;
6566;SDS011;3317;43.994;22.878;2023-06-19T04:00:25;6.13;;;4.67;;
6566;SDS011;3317;43.994;22.878;2023-06-19T04:02:52;7.83;;;4.97;;
6566;SDS011;3317;43.994;22.878;2023-06-19T04:05:19;5.70;;;4.90;;
6566;SDS011;3317;43.994;22.878;2023-06-19T04:07:46;10.63;;;5.40;;
6566;SDS011;3317;43.994;22.878;2023-06-19T04:10:13;5.77;;;4.90;;
6566;SDS011;3317;43.994;22.878;2023-06-19T04:12:41;5.80;;;4.30;;
6566;SDS011;3317;43.994;22.878;2023-06-19T04:15:10;5.60;;;4.60;;
6566;SDS011;3317;43.994;22.878;2023-06-19T04:17:37;7.13;;;4.57;;
6566;SDS011;3317;43.994;22.878;2023-06-19T04:20:04;8.70;;;5.57;;
6566;SDS011;3317;43.994;22.878;2023-06-19T04:22:36;6.33;;;4.67;;
6566;SDS011;3317;43.994;22.878;2023-06-19T04:25:04;6.10;;;4.33;;
6566;SDS011;3317;43.994;22.878;2023-06-19T04:27:32;11.87;;;5.00;;
6566;SDS011;3317;43.994;22.878;2023-06-19T04:30:01;9.60;;;4.93;;
6566;SDS011;3317;43.994;22.878;2023-06-19T04:32:29;8.20;;;4.90;;
6566;SDS011;3317;43.994;22.878;2023-06-19T04:34:56;7.63;;;4.60;;
6566;SDS011;3317;43.994;22.878;2023-06-19T04:37:23;6.07;;;4.70;;
6566;SDS011;3317;43.994;22.878;2023-06-19T04:39:50;10.60;;;4.67;;
6566;SDS011;3317;43.994;22.878;2023-06-19T04:42:17;8.03;;;5.50;;
6566;SDS011;3317;43.994;22.878;2023-06-19T04:44:45;15.93;;;6.50;;
6566;SDS011;3317;43.994;22.878;2023-06-19T04:47:16;6.97;;;5.40;;
6566;SDS011;3317;43.994;22.878;2023-06-19T04:49:44;10.20;;;6.00;;
6566;SDS011;3317;43.994;22.878;2023-06-19T04:52:11;13.07;;;7.00;;
6566;SDS011;3317;43.994;22.878;2023-06-19T04:54:38;9.40;;;6.40;;
6566;SDS011;3317;43.994;22.878;2023-06-19T04:57:05;8.33;;;6.03;;
6566;SDS011;3317;43.994;22.878;2023-06-19T04:59:32;15.60;;;7.00;;
6566;SDS011;3317;43.994;22.878;2023-06-19T05:01:59;8.97;;;5.93;;
6566;SDS011;3317;43.994;22.878;2023-06-19T05:04:29;9.93;;;6.43;;
6566;SDS011;3317;43.994;22.878;2023-06-19T05:06:57;9.83;;;5.90;;
6566;SDS011;3317;43.994;22.878;2023-06-19T05:09:24;10.40;;;5.80;;
6566;SDS011;3317;43.994;22.878;2023-06-19T05:11:52;9.53;;;5.30;;
6566;SDS011;3317;43.994;22.878;2023-06-19T05:14:20;10.20;;;5.20;;
6566;SDS011;3317;43.994;22.878;2023-06-19T05:16:47;7.07;;;5.20;;
6566;SDS011;3317;43.994;22.878;2023-06-19T05:19:14;6.10;;;4.50;;
6566;SDS011;3317;43.994;22.878;2023-06-19T05:21:42;8.03;;;4.67;;
6566;SDS011;3317;43.994;22.878;2023-06-19T05:24:09;11.43;;;5.57;;
6566;SDS011;3317;43.994;22.878;2023-06-19T05:26:36;9.30;;;5.00;;
6566;SDS011;3317;43.994;22.878;2023-06-19T05:29:03;5.60;;;4.60;;
6566;SDS011;3317;43.994;22.878;2023-06-19T05:31:33;10.53;;;4.90;;
6566;SDS011;3317;43.994;22.878;2023-06-19T05:34:00;7.90;;;4.80;;
6566;SDS011;3317;43.994;22.878;2023-06-19T05:36:27;8.50;;;5.10;;
6566;SDS011;3317;43.994;22.878;2023-06-19T05:38:55;6.80;;;5.10;;
6566;SDS011;3317;43.994;22.878;2023-06-19T05:41:22;8.87;;;4.83;;
6566;SDS011;3317;43.994;22.878;2023-06-19T05:43:49;7.43;;;5.23;;
6566;SDS011;3317;43.994;22.878;2023-06-19T05:46:16;12.83;;;5.07;;
6566;SDS011;3317;43.994;22.878;2023-06-19T05:48:43;8.40;;;4.83;;
6566;SDS011;3317;43.994;22.878;2023-06-19T05:51:10;7.57;;;5.37;;
6566;SDS011;3317;43.994;22.878;2023-06-19T05:53:37;9.20;;;4.60;;
6566;SDS011;3317;43.994;22.878;2023-06-19T05:56:06;15.00;;;5.83;;
6566;SDS011;3317;43.994;22.878;2023-06-19T05:58:34;6.80;;;4.27;;
6566;SDS011;3317;43.994;22.878;2023-06-19T06:01:01;6.83;;;4.87;;
6566;SDS011;3317;43.994;22.878;2023-06-19T06:03:28;7.23;;;4.60;;
6566;SDS011;3317;43.994;22.878;2023-06-19T06:05:56;6.93;;;4.50;;
6566;SDS011;3317;43.994;22.878;2023-06-19T06:08:28;10.77;;;4.30;;
6566;SDS011;3317;43.994;22.878;2023-06-19T06:10:55;8.10;;;4.93;;
6566;SDS011;3317;43.994;22.878;2023-06-19T06:13:24;5.97;;;4.73;;
6566;SDS011;3317;43.994;22.878;2023-06-19T06:15:51;8.53;;;4.43;;
6566;SDS011;3317;43.994;22.878;2023-06-19T06:18:18;6.60;;;5.13;;
6566;SDS011;3317;43.994;22.878;2023-06-19T06:20:45;10.33;;;5.20;;
6566;SDS011;3317;43.994;22.878;2023-06-19T06:23:13;11.27;;;5.20;;
6566;SDS011;3317;43.994;22.878;2023-06-19T06:25:42;10.33;;;5.40;;
6566;SDS011;3317;43.994;22.878;2023-06-19T06:28:10;8.60;;;5.40;;
6566;SDS011;3317;43.994;22.878;2023-06-19T06:30:41;5.80;;;4.67;;
6566;SDS011;3317;43.994;22.878;2023-06-19T06:33:08;5.60;;;4.63;;
6566;SDS011;3317;43.994;22.878;2023-06-19T06:35:35;4.97;;;4.47;;
6566;SDS011;3317;43.994;22.878;2023-06-19T06:38:02;5.77;;;4.97;;
6566;SDS011;3317;43.994;22.878;2023-06-19T06:40:29;10.60;;;5.00;;
6566;SDS011;3317;43.994;22.878;2023-06-19T06:42:57;7.70;;;4.93;;
6566;SDS011;3317;43.994;22.878;2023-06-19T06:45:24;5.20;;;4.13;;
6566;SDS011;3317;43.994;22.878;2023-06-19T06:47:53;8.73;;;4.00;;
6566;SDS011;3317;43.994;22.878;2023-06-19T06:50:20;6.53;;;4.50;;
6566;SDS011;3317;43.994;22.878;2023-06-19T06:52:47;6.93;;;4.33;;
6566;SDS011;3317;43.994;22.878;2023-06-19T06:55:14;8.23;;;4.77;;
6566;SDS011;3317;43.994;22.878;2023-06-19T06:57:41;9.43;;;5.03;;
6566;SDS011;3317;43.994;22.878;2023-06-19T07:00:09;4.40;;;4.00;;
6566;SDS011;3317;43.994;22.878;2023-06-19T07:02:38;6.73;;;4.27;;
6566;SDS011;3317;43.994;22.878;2023-06-19T07:05:08;5.47;;;4.40;;
6566;SDS011;3317;43.994;22.878;2023-06-19T07:07:36;7.03;;;4.43;;
6566;SDS011;3317;43.994;22.878;2023-06-19T07:10:03;7.80;;;4.50;;
6566;SDS011;3317;43.994;22.878;2023-06-19T07:12:31;7.40;;;4.20;;
6566;SDS011;3317;43.994;22.878;2023-06-19T07:14:59;6.83;;;3.90;;
6566;SDS011;3317;43.994;22.878;2023-06-19T07:17:26;12.43;;;6.33;;
6566;SDS011;3317;43.994;22.878;2023-06-19T07:19:52;8.00;;;5.87;;
6566;SDS011;3317;43.994;22.878;2023-06-19T07:22:21;9.37;;;5.33;;
6566;SDS011;3317;43.994;22.878;2023-06-19T07:24:48;5.20;;;4.60;;
6566;SDS011;3317;43.994;22.878;2023-06-19T07:27:15;4.70;;;4.30;;
6566;SDS011;3317;43.994;22.878;2023-06-19T07:29:43;7.30;;;4.50;;
6566;SDS011;3317;43.994;22.878;2023-06-19T07:32:10;4.50;;;3.73;;
6566;SDS011;3317;43.994;22.878;2023-06-19T07:34:37;6.50;;;4.57;;
6566;SDS011;3317;43.994;22.878;2023-06-19T07:37:05;4.97;;;4.47;;
6566;SDS011;3317;43.994;22.878;2023-06-19T07:39:34;8.67;;;4.53;;
6566;SDS011;3317;43.994;22.878;2023-06-19T07:42:01;8.10;;;4.27;;
6566;SDS011;3317;43.994;22.878;2023-06-19T07:44:28;5.30;;;4.10;;
6566;SDS011;3317;43.994;22.878;2023-06-19T07:46:55;8.00;;;5.00;;
6566;SDS011;3317;43.994;22.878;2023-06-19T07:49:22;5.80;;;4.90;;
6566;SDS011;3317;43.994;22.878;2023-06-19T07:51:49;5.77;;;4.17;;
6566;SDS011;3317;43.994;22.878;2023-06-19T07:54:16;4.13;;;3.73;;
6566;SDS011;3317;43.994;22.878;2023-06-19T07:56:45;4.70;;;4.20;;
6566;SDS011;3317;43.994;22.878;2023-06-19T07:59:12;8.27;;;4.93;;
6566;SDS011;3317;43.994;22.878;2023-06-19T08:01:39;5.90;;;4.40;;
6566;SDS011;3317;43.994;22.878;2023-06-19T08:04:06;5.10;;;4.20;;
6566;SDS011;3317;43.994;22.878;2023-06-19T08:06:33;5.67;;;4.30;;
6566;SDS011;3317;43.994;22.878;2023-06-19T08:09:00;4.27;;;3.87;;
6566;SDS011;3317;43.994;22.878;2023-06-19T08:11:27;4.80;;;4.23;;
6566;SDS011;3317;43.994;22.878;2023-06-19T08:13:56;7.17;;;4.63;;
6566;SDS011;3317;43.994;22.878;2023-06-19T08:16:24;4.97;;;4.47;;
6566;SDS011;3317;43.994;22.878;2023-06-19T08:18:51;8.83;;;4.10;;
6566;SDS011;3317;43.994;22.878;2023-06-19T08:21:18;5.07;;;4.30;;
6566;SDS011;3317;43.994;22.878;2023-06-19T08:23:46;4.17;;;3.77;;
6566;SDS011;3317;43.994;22.878;2023-06-19T08:26:13;5.03;;;4.10;;
6566;SDS011;3317;43.994;22.878;2023-06-19T08:28:40;5.67;;;3.93;;
6566;SDS011;3317;43.994;22.878;2023-06-19T08:31:09;4.87;;;4.23;;
6566;SDS011;3317;43.994;22.878;2023-06-19T08:33:36;4.53;;;3.87;;
6566;SDS011;3317;43.994;22.878;2023-06-19T08:36:03;10.53;;;6.37;;
6566;SDS011;3317;43.994;22.878;2023-06-19T08:38:31;4.53;;;4.13;;
6566;SDS011;3317;43.994;22.878;2023-06-19T08:40:58;4.57;;;4.10;;
6566;SDS011;3317;43.994;22.878;2023-06-19T08:43:25;6.20;;;4.20;;
6566;SDS011;3317;43.994;22.878;2023-06-19T08:45:52;8.07;;;4.90;;
6566;SDS011;3317;43.994;22.878;2023-06-19T08:48:28;8.37;;;4.93;;
6566;SDS011;3317;43.994;22.878;2023-06-19T08:50:55;4.23;;;3.87;;
6566;SDS011;3317;43.994;22.878;2023-06-19T08:53:22;7.10;;;4.17;;
6566;SDS011;3317;43.994;22.878;2023-06-19T08:55:49;6.03;;;3.77;;
6566;SDS011;3317;43.994;22.878;2023-06-19T08:58:21;4.73;;;4.23;;
6566;SDS011;3317;43.994;22.878;2023-06-19T09:00:48;6.23;;;4.00;;
6566;SDS011;3317;43.994;22.878;2023-06-19T09:03:19;5.00;;;3.70;;
6566;SDS011;3317;43.994;22.878;2023-06-19T09:05:48;4.50;;;3.80;;
6566;SDS011;3317;43.994;22.878;2023-06-19T09:08:16;5.13;;;3.60;;
6566;SDS011;3317;43.994;22.878;2023-06-19T09:10:43;4.00;;;3.60;;
6566;SDS011;3317;43.994;22.878;2023-06-19T09:13:21;4.77;;;3.60;;
6566;SDS011;3317;43.994;22.878;2023-06-19T09:15:56;4.27;;;3.57;;
6566;SDS011;3317;43.994;22.878;2023-06-19T09:18:25;3.97;;;3.57;;
6566;SDS011;3317;43.994;22.878;2023-06-19T09:20:53;5.60;;;3.73;;
6566;SDS011;3317;43.994;22.878;2023-06-19T09:23:20;5.73;;;3.83;;
6566;SDS011;3317;43.994;22.878;2023-06-19T09:25:48;14.63;;;3.80;;
6566;SDS011;3317;43.994;22.878;2023-06-19T09:28:17;7.07;;;4.30;;
6566;SDS011;3317;43.994;22.878;2023-06-19T09:30:55;4.40;;;4.00;;
6566;SDS011;3317;43.994;22.878;2023-06-19T09:33:25;7.30;;;3.80;;
6566;SDS011;3317;43.994;22.878;2023-06-19T09:35:54;14.83;;;4.67;;
6566;SDS011;3317;43.994;22.878;2023-06-19T09:38:21;7.13;;;4.13;;
6566;SDS011;3317;43.994;22.878;2023-06-19T09:40:51;5.13;;;3.80;;
6566;SDS011;3317;43.994;22.878;2023-06-19T09:43:23;4.53;;;4.13;;
6566;SDS011;3317;43.994;22.878;2023-06-19T09:45:54;4.70;;;3.63;;
6566;SDS011;3317;43.994;22.878;2023-06-19T09:48:25;8.13;;;4.20;;
6566;SDS011;3317;43.994;22.878;2023-06-19T09:50:58;5.33;;;3.70;;
6566;SDS011;3317;43.994;22.878;2023-06-19T09:53:27;5.10;;;4.13;;
6566;SDS011;3317;43.994;22.878;2023-06-19T09:55:54;5.27;;;3.80;;
6566;SDS011;3317;43.994;22.878;2023-06-19T09:58:21;6.17;;;3.90;;
6566;SDS011;3317;43.994;22.878;2023-06-19T10:00:49;7.07;;;4.57;;
6566;SDS011;3317;43.994;22.878;2023-06-19T10:03:17;7.83;;;4.33;;
6566;SDS011;3317;43.994;22.878;2023-06-19T10:05:44;4.30;;;3.90;;
6566;SDS011;3317;43.994;22.878;2023-06-19T10:08:12;4.43;;;3.97;;
6566;SDS011;3317;43.994;22.878;2023-06-19T10:10:45;5.00;;;4.23;;
6566;SDS011;3317;43.994;22.878;2023-06-19T10:13:14;4.10;;;3.20;;
6566;SDS011;3317;43.994;22.878;2023-06-19T10:15:42;4.10;;;3.70;;
6566;SDS011;3317;43.994;22.878;2023-06-19T10:18:13;6.00;;;3.90;;
6566;SDS011;3317;43.994;22.878;2023-06-19T10:20:42;7.43;;;4.03;;
6566;SDS011;3317;43.994;22.878;2023-06-19T10:23:11;4.73;;;4.33;;
6566;SDS011;3317;43.994;22.878;2023-06-19T10:25:43;4.20;;;3.87;;
6566;SDS011;3317;43.994;22.878;2023-06-19T10:28:18;4.27;;;3.87;;
6566;SDS011;3317;43.994;22.878;2023-06-19T10:30:51;4.30;;;3.90;;
6566;SDS011;3317;43.994;22.878;2023-06-19T10:33:22;5.03;;;3.80;;
6566;SDS011;3317;43.994;22.878;2023-06-19T10:35:50;4.33;;;3.93;;
6566;SDS011;3317;43.994;22.878;2023-06-19T10:38:19;6.83;;;4.13;;
6566;SDS011;3317;43.994;22.878;2023-06-19T10:40:47;3.50;;;3.20;;
6566;SDS011;3317;43.994;22.878;2023-06-19T10:43:19;6.00;;;4.20;;
6566;SDS011;3317;43.994;22.878;2023-06-19T10:45:49;5.33;;;4.23;;
6566;SDS011;3317;43.994;22.878;2023-06-19T10:48:18;5.80;;;4.20;;
6566;SDS011;3317;43.994;22.878;2023-06-19T10:50:46;4.53;;;4.13;;
6566;SDS011;3317;43.994;22.878;2023-06-19T10:53:24;4.47;;;4.07;;
6566;SDS011;3317;43.994;22.878;2023-06-19T10:55:54;4.20;;;3.80;;
6566;SDS011;3317;43.994;22.878;2023-06-19T10:58:22;5.30;;;4.40;;
6566;SDS011;3317;43.994;22.878;2023-06-19T11:00:49;4.83;;;4.23;;
6566;SDS011;3317;43.994;22.878;2023-06-19T11:03:16;4.50;;;4.10;;
6566;SDS011;3317;43.994;22.878;2023-06-19T11:05:45;4.50;;;4.10;;
6566;SDS011;3317;43.994;22.878;2023-06-19T11:08:17;3.97;;;3.57;;
6566;SDS011;3317;43.994;22.878;2023-06-19T11:10:46;4.20;;;3.80;;
6566;SDS011;3317;43.994;22.878;2023-06-19T11:13:13;6.20;;;3.63;;
6566;SDS011;3317;43.994;22.878;2023-06-19T11:15:41;4.83;;;3.83;;
6566;SDS011;3317;43.994;22.878;2023-06-19T11:18:08;3.97;;;3.50;;
6566;SDS011;3317;43.994;22.878;2023-06-19T11:20:43;4.80;;;3.50;;
6566;SDS011;3317;43.994;22.878;2023-06-19T11:23:10;4.90;;;4.20;;
6566;SDS011;3317;43.994;22.878;2023-06-19T11:25:38;4.33;;;3.93;;
6566;SDS011;3317;43.994;22.878;2023-06-19T11:28:11;4.67;;;4.27;;
6566;SDS011;3317;43.994;22.878;2023-06-19T11:30:39;4.50;;;4.10;;
6566;SDS011;3317;43.994;22.878;2023-06-19T11:33:15;4.90;;;4.17;;
6566;SDS011;3317;43.994;22.878;2023-06-19T11:35:47;6.60;;;3.60;;
6566;SDS011;3317;43.994;22.878;2023-06-19T11:38:18;6.13;;;3.90;;
6566;SDS011;3317;43.994;22.878;2023-06-19T11:40:46;7.10;;;4.30;;
6566;SDS011;3317;43.994;22.878;2023-06-19T11:43:24;6.03;;;3.90;;
6566;SDS011;3317;43.994;22.878;2023-06-19T11:45:51;6.83;;;3.97;;
6566;SDS011;3317;43.994;22.878;2023-06-19T11:48:22;7.47;;;3.93;;
6566;SDS011;3317;43.994;22.878;2023-06-19T11:50:49;5.17;;;3.97;;
6566;SDS011;3317;43.994;22.878;2023-06-19T11:53:18;4.57;;;4.13;;
6566;SDS011;3317;43.994;22.878;2023-06-19T11:55:45;3.83;;;3.50;;
6566;SDS011;3317;43.994;22.878;2023-06-19T11:58:12;4.57;;;4.17;;
6566;SDS011;3317;43.994;22.878;2023-06-19T12:00:41;6.47;;;5.07;;
6566;SDS011;3317;43.994;22.878;2023-06-19T12:03:09;4.50;;;4.10;;
6566;SDS011;3317;43.994;22.878;2023-06-19T12:05:36;6.00;;;4.10;;
6566;SDS011;3317;43.994;22.878;2023-06-19T12:08:04;6.37;;;4.77;;
6566;SDS011;3317;43.994;22.878;2023-06-19T12:10:32;5.57;;;4.57;;
6566;SDS011;3317;43.994;22.878;2023-06-19T12:12:59;5.47;;;4.20;;
6566;SDS011;3317;43.994;22.878;2023-06-19T12:15:26;4.73;;;4.33;;
6566;SDS011;3317;43.994;22.878;2023-06-19T12:17:54;5.83;;;4.13;;
6566;SDS011;3317;43.994;22.878;2023-06-19T12:20:23;4.60;;;4.20;;
6566;SDS011;3317;43.994;22.878;2023-06-19T12:22:50;6.40;;;4.00;;
6566;SDS011;3317;43.994;22.878;2023-06-19T12:25:17;8.93;;;4.20;;
6566;SDS011;3317;43.994;22.878;2023-06-19T12:27:44;7.63;;;4.60;;
6566;SDS011;3317;43.994;22.878;2023-06-19T12:30:11;6.10;;;4.53;;
6566;SDS011;3317;43.994;22.878;2023-06-19T12:32:39;5.23;;;4.13;;
6566;SDS011;3317;43.994;22.878;2023-06-19T12:35:08;5.23;;;4.40;;
6566;SDS011;3317;43.994;22.878;2023-06-19T12:37:35;4.80;;;3.80;;
6566;SDS011;3317;43.994;22.878;2023-06-19T12:40:02;5.80;;;4.67;;
6566;SDS011;3317;43.994;22.878;2023-06-19T12:42:33;9.30;;;4.70;;
6566;SDS011;3317;43.994;22.878;2023-06-19T12:45:01;5.03;;;4.53;;
6566;SDS011;3317;43.994;22.878;2023-06-19T12:47:28;6.97;;;4.60;;
6566;SDS011;3317;43.994;22.878;2023-06-19T12:49:55;5.77;;;4.43;;
6566;SDS011;3317;43.994;22.878;2023-06-19T12:52:23;7.40;;;4.63;;
6566;SDS011;3317;43.994;22.878;2023-06-19T12:54:50;5.07;;;4.67;;
6566;SDS011;3317;43.994;22.878;2023-06-19T12:57:17;5.73;;;4.23;;
6566;SDS011;3317;43.994;22.878;2023-06-19T12:59:44;7.00;;;5.17;;
6566;SDS011;3317;43.994;22.878;2023-06-19T13:02:10;4.83;;;4.43;;
6566;SDS011;3317;43.994;22.878;2023-06-19T13:04:37;6.13;;;4.80;;
6566;SDS011;3317;43.994;22.878;2023-06-19T13:07:04;5.10;;;4.60;;
6566;SDS011;3317;43.994;22.878;2023-06-19T13:09:33;5.10;;;4.53;;
6566;SDS011;3317;43.994;22.878;2023-06-19T13:12:01;4.77;;;4.33;;
6566;SDS011;3317;43.994;22.878;2023-06-19T13:14:28;4.70;;;4.30;;
6566;SDS011;3317;43.994;22.878;2023-06-19T13:16:56;5.40;;;4.90;;
6566;SDS011;3317;43.994;22.878;2023-06-19T13:19:23;6.97;;;4.93;;
6566;SDS011;3317;43.994;22.878;2023-06-19T13:21:51;5.17;;;4.67;;
6566;SDS011;3317;43.994;22.878;2023-06-19T13:24:18;6.27;;;5.30;;
6566;SDS011;3317;43.994;22.878;2023-06-19T13:26:46;4.47;;;4.07;;
6566;SDS011;3317;43.994;22.878;2023-06-19T13:29:13;5.40;;;4.70;;
6566;SDS011;3317;43.994;22.878;2023-06-19T13:31:41;5.10;;;4.60;;
6566;SDS011;3317;43.994;22.878;2023-06-19T13:34:08;6.57;;;5.10;;
6566;SDS011;3317;43.994;22.878;2023-06-19T13:36:34;5.37;;;4.70;;
6566;SDS011;3317;43.994;22.878;2023-06-19T13:39:01;5.83;;;4.80;;
6566;SDS011;3317;43.994;22.878;2023-06-19T13:41:29;6.90;;;5.07;;
6566;SDS011;3317;43.994;22.878;2023-06-19T13:43:59;7.23;;;4.90;;
6566;SDS011;3317;43.994;22.878;2023-06-19T13:46:26;9.10;;;5.10;;
6566;SDS011;3317;43.994;22.878;2023-06-19T13:48:54;6.27;;;4.67;;
6566;SDS011;3317;43.994;22.878;2023-06-19T13:51:21;6.77;;;4.70;;
6566;SDS011;3317;43.994;22.878;2023-06-19T13:53:50;6.50;;;4.40;;
6566;SDS011;3317;43.994;22.878;2023-06-19T13:56:17;9.33;;;5.20;;
6566;SDS011;3317;43.994;22.878;2023-06-19T13:58:44;5.73;;;5.13;;
6566;SDS011;3317;43.994;22.878;2023-06-19T14:01:13;11.23;;;5.10;;
6566;SDS011;3317;43.994;22.878;2023-06-19T14:03:40;8.27;;;4.60;;
6566;SDS011;3317;43.994;22.878;2023-06-19T14:06:07;9.63;;;5.30;;
6566;SDS011;3317;43.994;22.878;2023-06-19T14:08:34;6.30;;;4.70;;
6566;SDS011;3317;43.994;22.878;2023-06-19T14:11:01;6.03;;;4.30;;
6566;SDS011;3317;43.994;22.878;2023-06-19T14:13:28;7.00;;;4.60;;
6566;SDS011;3317;43.994;22.878;2023-06-19T14:15:55;6.17;;;5.07;;
6566;SDS011;3317;43.994;22.878;2023-06-19T14:18:25;8.47;;;5.60;;
6566;SDS011;3317;43.994;22.878;2023-06-19T14:20:52;6.13;;;5.13;;
6566;SDS011;3317;43.994;22.878;2023-06-19T14:23:18;5.63;;;4.97;;
6566;SDS011;3317;43.994;22.878;2023-06-19T14:25:45;5.60;;;4.50;;
6566;SDS011;3317;43.994;22.878;2023-06-19T14:28:13;6.00;;;5.23;;
6566;SDS011;3317;43.994;22.878;2023-06-19T14:30:40;5.73;;;4.77;;
6566;SDS011;3317;43.994;22.878;2023-06-19T14:33:07;7.37;;;4.70;;
6566;SDS011;3317;43.994;22.878;2023-06-19T14:35:41;6.97;;;5.27;;
6566;SDS011;3317;43.994;22.878;2023-06-19T14:38:10;7.13;;;5.27;;
6566;SDS011;3317;43.994;22.878;2023-06-19T14:40:38;7.47;;;4.90;;
6566;SDS011;3317;43.994;22.878;2023-06-19T14:43:05;11.90;;;4.97;;
6566;SDS011;3317;43.994;22.878;2023-06-19T14:45:34;5.77;;;4.97;;
6566;SDS011;3317;43.994;22.878;2023-06-19T14:48:01;5.70;;;5.10;;
6566;SDS011;3317;43.994;22.878;2023-06-19T14:50:28;5.20;;;4.43;;
6566;SDS011;3317;43.994;22.878;2023-06-19T14:52:56;6.97;;;5.80;;
6566;SDS011;3317;43.994;22.878;2023-06-19T14:55:23;5.93;;;5.10;;
6566;SDS011;3317;43.994;22.878;2023-06-19T14:57:50;7.03;;;4.80;;
6566;SDS011;3317;43.994;22.878;2023-06-19T15:00:17;5.60;;;4.97;;
6566;SDS011;3317;43.994;22.878;2023-06-19T15:02:44;7.53;;;5.30;;
6566;SDS011;3317;43.994;22.878;2023-06-19T15:05:11;10.57;;;4.73;;